sensor_id;sensor_type;location;lat;lon;timestamp;P1;durP1;ratioP1;P2;durP2;ratioP2
57889;SDS011;43707;50.184;18.966;2022-09-13T00:01:59;12.40;;;7.20;;
57889;SDS011;43707;50.184;18.966;2022-09-13T00:04:24;12.10;;;8.40;;
57889;SDS011;43707;50.184;18.966;2022-09-13T00:06:50;12.20;;;7.90;;
57889;SDS011;43707;50.184;18.966;2022-09-13T00:09:15;12.00;;;7.80;;
57889;SDS011;43707;50.184;18.966;2022-09-13T00:11:41;13.40;;;7.60;;
57889;SDS011;43707;50.184;18.966;2022-09-13T00:14:06;9.90;;;7.20;;
57889;SDS011;43707;50.184;18.966;2022-09-13T00:16:33;9.10;;;7.00;;
57889;SDS011;43707;50.184;18.966;2022-09-13T00:18:58;9.10;;;7.20;;
57889;SDS011;43707;50.184;18.966;2022-09-13T00:21:25;13.20;;;7.20;;
57889;SDS011;43707;50.184;18.966;2022-09-13T00:23:52;10.30;;;6.80;;
57889;SDS011;43707;50.184;18.966;2022-09-13T00:26:19;11.40;;;7.50;;
57889;SDS011;43707;50.184;18.966;2022-09-13T00:28:51;11.70;;;7.50;;
57889;SDS011;43707;50.184;18.966;2022-09-13T00:31:18;12.20;;;7.70;;
57889;SDS011;43707;50.184;18.966;2022-09-13T00:33:44;13.40;;;7.80;;
57889;SDS011;43707;50.184;18.966;2022-09-13T00:36:10;11.60;;;7.60;;
57889;SDS011;43707;50.184;18.966;2022-09-13T00:38:39;8.80;;;7.10;;
57889;SDS011;43707;50.184;18.966;2022-09-13T00:41:06;9.70;;;7.20;;
57889;SDS011;43707;50.184;18.966;2022-09-13T00:43:44;12.10;;;8.10;;
57889;SDS011;43707;50.184;18.966;2022-09-13T00:46:19;8.80;;;7.20;;
57889;SDS011;43707;50.184;18.966;2022-09-13T00:51:50;8.50;;;7.20;;
57889;SDS011;43707;50.184;18.966;2022-09-13T00:54:20;9.20;;;6.80;;
57889;SDS011;43707;50.184;18.966;2022-09-13T00:56:48;12.50;;;8.80;;
57889;SDS011;43707;50.184;18.966;2022-09-13T00:59:24;10.30;;;7.70;;
57889;SDS011;43707;50.184;18.966;2022-09-13T01:01:53;12.90;;;8.50;;
57889;SDS011;43707;50.184;18.966;2022-09-13T01:04:21;13.00;;;8.50;;
57889;SDS011;43707;50.184;18.966;2022-09-13T01:06:49;9.70;;;7.40;;
57889;SDS011;43707;50.184;18.966;2022-09-13T01:09:16;11.20;;;8.40;;
57889;SDS011;43707;50.184;18.966;2022-09-13T01:11:46;13.60;;;8.00;;
57889;SDS011;43707;50.184;18.966;2022-09-13T01:14:15;9.90;;;7.20;;
57889;SDS011;43707;50.184;18.966;2022-09-13T01:16:42;18.80;;;8.50;;
57889;SDS011;43707;50.184;18.966;2022-09-13T01:19:08;11.90;;;8.00;;
57889;SDS011;43707;50.184;18.966;2022-09-13T01:24:53;13.00;;;9.70;;
57889;SDS011;43707;50.184;18.966;2022-09-13T01:30:10;19.40;;;10.60;;
57889;SDS011;43707;50.184;18.966;2022-09-13T01:46:38;20.50;;;11.50;;
57889;SDS011;43707;50.184;18.966;2022-09-13T01:57:16;16.60;;;10.80;;
57889;SDS011;43707;50.184;18.966;2022-09-13T02:00:12;21.50;;;11.60;;
57889;SDS011;43707;50.184;18.966;2022-09-13T02:02:48;17.80;;;11.60;;
57889;SDS011;43707;50.184;18.966;2022-09-13T02:07:58;14.70;;;10.50;;
57889;SDS011;43707;50.184;18.966;2022-09-13T02:10:32;14.40;;;10.90;;
57889;SDS011;43707;50.184;18.966;2022-09-13T02:13:00;19.40;;;11.30;;
57889;SDS011;43707;50.184;18.966;2022-09-13T02:15:29;17.60;;;10.50;;
57889;SDS011;43707;50.184;18.966;2022-09-13T02:18:03;15.50;;;10.80;;
57889;SDS011;43707;50.184;18.966;2022-09-13T02:20:37;14.30;;;12.10;;
57889;SDS011;43707;50.184;18.966;2022-09-13T02:23:08;12.50;;;10.70;;
57889;SDS011;43707;50.184;18.966;2022-09-13T02:25:37;14.70;;;11.30;;
57889;SDS011;43707;50.184;18.966;2022-09-13T02:28:05;14.60;;;10.30;;
57889;SDS011;43707;50.184;18.966;2022-09-13T02:30:33;15.20;;;10.60;;
57889;SDS011;43707;50.184;18.966;2022-09-13T02:33:07;13.90;;;11.60;;
57889;SDS011;43707;50.184;18.966;2022-09-13T02:36:06;19.20;;;11.70;;
57889;SDS011;43707;50.184;18.966;2022-09-13T02:38:45;17.10;;;12.30;;
57889;SDS011;43707;50.184;18.966;2022-09-13T02:41:38;15.50;;;11.70;;
57889;SDS011;43707;50.184;18.966;2022-09-13T02:44:14;15.70;;;11.70;;
57889;SDS011;43707;50.184;18.966;2022-09-13T02:46:55;22.30;;;13.50;;
57889;SDS011;43707;50.184;18.966;2022-09-13T02:59:55;25.10;;;15.00;;
57889;SDS011;43707;50.184;18.966;2022-09-13T03:02:21;20.40;;;14.00;;
57889;SDS011;43707;50.184;18.966;2022-09-13T03:04:49;22.90;;;13.70;;
57889;SDS011;43707;50.184;18.966;2022-09-13T03:07:15;18.70;;;13.10;;
57889;SDS011;43707;50.184;18.966;2022-09-13T03:09:41;20.80;;;12.90;;
57889;SDS011;43707;50.184;18.966;2022-09-13T03:21:04;18.70;;;13.30;;
57889;SDS011;43707;50.184;18.966;2022-09-13T03:29:05;18.00;;;12.40;;
57889;SDS011;43707;50.184;18.966;2022-09-13T03:34:29;23.80;;;16.80;;
57889;SDS011;43707;50.184;18.966;2022-09-13T03:37:05;26.10;;;17.80;;
57889;SDS011;43707;50.184;18.966;2022-09-13T03:39:52;34.00;;;20.10;;
57889;SDS011;43707;50.184;18.966;2022-09-13T03:42:50;32.50;;;19.10;;
57889;SDS011;43707;50.184;18.966;2022-09-13T03:45:19;28.20;;;16.30;;
57889;SDS011;43707;50.184;18.966;2022-09-13T03:47:46;24.50;;;15.40;;
57889;SDS011;43707;50.184;18.966;2022-09-13T03:50:17;23.50;;;14.30;;
57889;SDS011;43707;50.184;18.966;2022-09-13T03:52:44;20.80;;;13.50;;
57889;SDS011;43707;50.184;18.966;2022-09-13T03:55:12;17.90;;;12.70;;
57889;SDS011;43707;50.184;18.966;2022-09-13T03:57:37;20.80;;;14.30;;
57889;SDS011;43707;50.184;18.966;2022-09-13T04:00:03;16.90;;;11.70;;
57889;SDS011;43707;50.184;18.966;2022-09-13T04:02:29;13.10;;;11.20;;
57889;SDS011;43707;50.184;18.966;2022-09-13T04:04:54;13.40;;;11.20;;
57889;SDS011;43707;50.184;18.966;2022-09-13T04:07:21;13.30;;;11.80;;
57889;SDS011;43707;50.184;18.966;2022-09-13T04:09:47;13.50;;;10.70;;
57889;SDS011;43707;50.184;18.966;2022-09-13T04:12:14;15.70;;;12.90;;
57889;SDS011;43707;50.184;18.966;2022-09-13T04:14:41;14.00;;;11.80;;
57889;SDS011;43707;50.184;18.966;2022-09-13T04:17:09;16.40;;;13.30;;
57889;SDS011;43707;50.184;18.966;2022-09-13T04:19:35;15.60;;;13.40;;
57889;SDS011;43707;50.184;18.966;2022-09-13T04:22:00;19.50;;;13.70;;
57889;SDS011;43707;50.184;18.966;2022-09-13T04:24:26;19.70;;;14.50;;
57889;SDS011;43707;50.184;18.966;2022-09-13T04:26:53;19.20;;;13.80;;
57889;SDS011;43707;50.184;18.966;2022-09-13T04:29:19;15.30;;;13.00;;
57889;SDS011;43707;50.184;18.966;2022-09-13T04:31:46;16.00;;;12.30;;
57889;SDS011;43707;50.184;18.966;2022-09-13T04:34:12;13.40;;;12.00;;
57889;SDS011;43707;50.184;18.966;2022-09-13T04:36:38;18.80;;;12.30;;
57889;SDS011;43707;50.184;18.966;2022-09-13T04:39:03;16.50;;;12.30;;
57889;SDS011;43707;50.184;18.966;2022-09-13T04:41:29;15.70;;;11.40;;
57889;SDS011;43707;50.184;18.966;2022-09-13T04:43:56;13.20;;;11.80;;
57889;SDS011;43707;50.184;18.966;2022-09-13T04:46:22;17.70;;;11.40;;
57889;SDS011;43707;50.184;18.966;2022-09-13T04:48:50;13.90;;;10.80;;
57889;SDS011;43707;50.184;18.966;2022-09-13T04:51:16;16.40;;;12.70;;
57889;SDS011;43707;50.184;18.966;2022-09-13T04:53:43;13.90;;;11.20;;
57889;SDS011;43707;50.184;18.966;2022-09-13T04:56:09;16.90;;;11.70;;
57889;SDS011;43707;50.184;18.966;2022-09-13T04:58:36;22.30;;;11.20;;
57889;SDS011;43707;50.184;18.966;2022-09-13T05:01:02;14.90;;;11.10;;
57889;SDS011;43707;50.184;18.966;2022-09-13T05:03:29;14.40;;;10.10;;
57889;SDS011;43707;50.184;18.966;2022-09-13T05:06:00;14.90;;;10.30;;
57889;SDS011;43707;50.184;18.966;2022-09-13T05:08:33;11.30;;;9.70;;
57889;SDS011;43707;50.184;18.966;2022-09-13T05:10:59;11.30;;;9.30;;
57889;SDS011;43707;50.184;18.966;2022-09-13T05:13:24;14.10;;;9.50;;
57889;SDS011;43707;50.184;18.966;2022-09-13T05:15:54;13.80;;;9.80;;
57889;SDS011;43707;50.184;18.966;2022-09-13T05:18:21;15.10;;;10.00;;
57889;SDS011;43707;50.184;18.966;2022-09-13T05:20:47;14.80;;;10.10;;
57889;SDS011;43707;50.184;18.966;2022-09-13T05:23:12;13.30;;;9.70;;
57889;SDS011;43707;50.184;18.966;2022-09-13T05:25:37;14.80;;;9.30;;
57889;SDS011;43707;50.184;18.966;2022-09-13T05:28:03;12.30;;;10.10;;
57889;SDS011;43707;50.184;18.966;2022-09-13T05:30:28;15.20;;;9.60;;
57889;SDS011;43707;50.184;18.966;2022-09-13T05:32:54;14.80;;;10.30;;
57889;SDS011;43707;50.184;18.966;2022-09-13T05:35:19;18.10;;;11.10;;
57889;SDS011;43707;50.184;18.966;2022-09-13T05:37:44;16.70;;;11.10;;
57889;SDS011;43707;50.184;18.966;2022-09-13T05:40:10;19.20;;;11.80;;
57889;SDS011;43707;50.184;18.966;2022-09-13T05:42:35;16.60;;;11.10;;
57889;SDS011;43707;50.184;18.966;2022-09-13T05:45:01;21.40;;;11.90;;
57889;SDS011;43707;50.184;18.966;2022-09-13T05:47:26;17.90;;;10.20;;
57889;SDS011;43707;50.184;18.966;2022-09-13T05:49:52;16.00;;;10.20;;
57889;SDS011;43707;50.184;18.966;2022-09-13T05:52:17;17.10;;;11.10;;
57889;SDS011;43707;50.184;18.966;2022-09-13T05:54:42;15.20;;;11.10;;
57889;SDS011;43707;50.184;18.966;2022-09-13T05:57:08;16.20;;;12.20;;
57889;SDS011;43707;50.184;18.966;2022-09-13T05:59:33;17.20;;;12.70;;
57889;SDS011;43707;50.184;18.966;2022-09-13T06:01:59;18.50;;;13.80;;
57889;SDS011;43707;50.184;18.966;2022-09-13T06:04:24;27.30;;;14.00;;
57889;SDS011;43707;50.184;18.966;2022-09-13T06:06:50;22.70;;;14.30;;
57889;SDS011;43707;50.184;18.966;2022-09-13T06:09:15;18.30;;;14.00;;
57889;SDS011;43707;50.184;18.966;2022-09-13T06:11:40;24.90;;;14.20;;
57889;SDS011;43707;50.184;18.966;2022-09-13T06:14:06;21.80;;;14.50;;
57889;SDS011;43707;50.184;18.966;2022-09-13T06:16:33;21.00;;;13.60;;
57889;SDS011;43707;50.184;18.966;2022-09-13T06:18:58;19.00;;;14.00;;
57889;SDS011;43707;50.184;18.966;2022-09-13T06:21:24;22.40;;;13.10;;
57889;SDS011;43707;50.184;18.966;2022-09-13T06:23:50;17.70;;;12.70;;
57889;SDS011;43707;50.184;18.966;2022-09-13T06:26:18;18.70;;;12.60;;
57889;SDS011;43707;50.184;18.966;2022-09-13T06:28:48;15.90;;;11.00;;
57889;SDS011;43707;50.184;18.966;2022-09-13T06:31:15;20.00;;;10.70;;
57889;SDS011;43707;50.184;18.966;2022-09-13T06:33:41;21.50;;;11.10;;
57889;SDS011;43707;50.184;18.966;2022-09-13T06:36:08;17.20;;;11.60;;
57889;SDS011;43707;50.184;18.966;2022-09-13T06:38:36;22.50;;;11.90;;
57889;SDS011;43707;50.184;18.966;2022-09-13T06:41:03;17.90;;;10.90;;
57889;SDS011;43707;50.184;18.966;2022-09-13T06:43:33;20.60;;;11.30;;
57889;SDS011;43707;50.184;18.966;2022-09-13T06:46:09;16.80;;;10.50;;
57889;SDS011;43707;50.184;18.966;2022-09-13T06:48:37;15.40;;;9.60;;
57889;SDS011;43707;50.184;18.966;2022-09-13T06:51:05;13.60;;;10.00;;
57889;SDS011;43707;50.184;18.966;2022-09-13T06:53:32;17.70;;;9.50;;
57889;SDS011;43707;50.184;18.966;2022-09-13T06:56:03;16.00;;;9.40;;
57889;SDS011;43707;50.184;18.966;2022-09-13T06:58:37;17.00;;;9.30;;
57889;SDS011;43707;50.184;18.966;2022-09-13T07:01:07;13.30;;;8.80;;
57889;SDS011;43707;50.184;18.966;2022-09-13T07:03:37;17.00;;;9.00;;
57889;SDS011;43707;50.184;18.966;2022-09-13T07:06:08;12.10;;;8.60;;
57889;SDS011;43707;50.184;18.966;2022-09-13T07:08:37;11.60;;;9.00;;
57889;SDS011;43707;50.184;18.966;2022-09-13T07:11:03;16.30;;;9.40;;
57889;SDS011;43707;50.184;18.966;2022-09-13T07:13:29;15.30;;;8.70;;
57889;SDS011;43707;50.184;18.966;2022-09-13T07:15:54;16.00;;;10.60;;
57889;SDS011;43707;50.184;18.966;2022-09-13T07:18:20;15.80;;;9.80;;
57889;SDS011;43707;50.184;18.966;2022-09-13T07:20:45;15.30;;;9.30;;
57889;SDS011;43707;50.184;18.966;2022-09-13T07:23:11;15.20;;;8.70;;
57889;SDS011;43707;50.184;18.966;2022-09-13T07:25:36;11.20;;;7.60;;
57889;SDS011;43707;50.184;18.966;2022-09-13T07:28:02;12.80;;;8.20;;
57889;SDS011;43707;50.184;18.966;2022-09-13T07:30:27;13.70;;;7.60;;
57889;SDS011;43707;50.184;18.966;2022-09-13T07:32:53;13.60;;;7.90;;
57889;SDS011;43707;50.184;18.966;2022-09-13T07:35:18;14.70;;;7.50;;
57889;SDS011;43707;50.184;18.966;2022-09-13T07:37:44;13.10;;;8.20;;
57889;SDS011;43707;50.184;18.966;2022-09-13T07:40:10;14.40;;;8.10;;
57889;SDS011;43707;50.184;18.966;2022-09-13T07:42:36;11.90;;;7.50;;
57889;SDS011;43707;50.184;18.966;2022-09-13T07:45:01;13.10;;;7.20;;
57889;SDS011;43707;50.184;18.966;2022-09-13T07:47:27;11.50;;;7.20;;
57889;SDS011;43707;50.184;18.966;2022-09-13T07:49:53;9.50;;;7.50;;
57889;SDS011;43707;50.184;18.966;2022-09-13T07:52:18;12.40;;;7.00;;
57889;SDS011;43707;50.184;18.966;2022-09-13T07:54:43;9.70;;;7.30;;
57889;SDS011;43707;50.184;18.966;2022-09-13T07:57:09;11.20;;;7.60;;
57889;SDS011;43707;50.184;18.966;2022-09-13T07:59:34;12.10;;;7.40;;
57889;SDS011;43707;50.184;18.966;2022-09-13T08:02:00;10.80;;;6.80;;
57889;SDS011;43707;50.184;18.966;2022-09-13T08:04:25;9.10;;;6.90;;
57889;SDS011;43707;50.184;18.966;2022-09-13T08:06:51;9.50;;;6.80;;
57889;SDS011;43707;50.184;18.966;2022-09-13T08:09:16;12.30;;;7.70;;
57889;SDS011;43707;50.184;18.966;2022-09-13T08:11:45;10.90;;;7.60;;
57889;SDS011;43707;50.184;18.966;2022-09-13T08:14:13;7.60;;;5.70;;
57889;SDS011;43707;50.184;18.966;2022-09-13T08:16:40;9.80;;;5.80;;
57889;SDS011;43707;50.184;18.966;2022-09-13T08:19:06;9.50;;;4.60;;
57889;SDS011;43707;50.184;18.966;2022-09-13T08:21:33;9.10;;;5.40;;
57889;SDS011;43707;50.184;18.966;2022-09-13T08:23:59;7.40;;;5.50;;
57889;SDS011;43707;50.184;18.966;2022-09-13T08:26:26;6.70;;;4.50;;
57889;SDS011;43707;50.184;18.966;2022-09-13T08:28:58;6.90;;;4.70;;
57889;SDS011;43707;50.184;18.966;2022-09-13T08:31:25;6.30;;;4.40;;
57889;SDS011;43707;50.184;18.966;2022-09-13T08:33:51;8.40;;;5.00;;
57889;SDS011;43707;50.184;18.966;2022-09-13T08:36:17;7.70;;;4.80;;
57889;SDS011;43707;50.184;18.966;2022-09-13T08:38:47;8.70;;;4.80;;
57889;SDS011;43707;50.184;18.966;2022-09-13T08:46:48;10.50;;;4.70;;
57889;SDS011;43707;50.184;18.966;2022-09-13T08:51:50;6.60;;;4.20;;
57889;SDS011;43707;50.184;18.966;2022-09-13T08:54:19;4.50;;;4.00;;
57889;SDS011;43707;50.184;18.966;2022-09-13T08:56:51;5.80;;;3.70;;
57889;SDS011;43707;50.184;18.966;2022-09-13T09:05:01;8.10;;;4.20;;
57889;SDS011;43707;50.184;18.966;2022-09-13T09:07:35;4.10;;;3.20;;
57889;SDS011;43707;50.184;18.966;2022-09-13T09:10:06;4.20;;;2.80;;
57889;SDS011;43707;50.184;18.966;2022-09-13T09:17:50;3.60;;;3.20;;
57889;SDS011;43707;50.184;18.966;2022-09-13T09:22:43;5.60;;;2.40;;
57889;SDS011;43707;50.184;18.966;2022-09-13T09:25:10;3.70;;;2.60;;
57889;SDS011;43707;50.184;18.966;2022-09-13T09:27:36;3.60;;;3.10;;
57889;SDS011;43707;50.184;18.966;2022-09-13T09:30:01;3.30;;;2.80;;
57889;SDS011;43707;50.184;18.966;2022-09-13T09:35:15;5.20;;;4.00;;
57889;SDS011;43707;50.184;18.966;2022-09-13T09:38:20;4.10;;;3.00;;
57889;SDS011;43707;50.184;18.966;2022-09-13T09:41:17;6.30;;;4.50;;
57889;SDS011;43707;50.184;18.966;2022-09-13T09:46:13;6.60;;;3.30;;
57889;SDS011;43707;50.184;18.966;2022-09-13T09:49:13;2.70;;;2.50;;
57889;SDS011;43707;50.184;18.966;2022-09-13T09:51:55;3.20;;;2.60;;
57889;SDS011;43707;50.184;18.966;2022-09-13T09:54:22;3.00;;;2.30;;
57889;SDS011;43707;50.184;18.966;2022-09-13T09:56:52;5.80;;;2.30;;
57889;SDS011;43707;50.184;18.966;2022-09-13T09:59:26;5.30;;;2.30;;
57889;SDS011;43707;50.184;18.966;2022-09-13T10:01:53;3.30;;;2.80;;
57889;SDS011;43707;50.184;18.966;2022-09-13T10:04:20;3.50;;;2.70;;
57889;SDS011;43707;50.184;18.966;2022-09-13T10:06:46;4.10;;;3.20;;
57889;SDS011;43707;50.184;18.966;2022-09-13T10:09:14;4.60;;;2.40;;
57889;SDS011;43707;50.184;18.966;2022-09-13T10:11:42;2.90;;;2.40;;
57889;SDS011;43707;50.184;18.966;2022-09-13T10:14:26;6.20;;;2.30;;
57889;SDS011;43707;50.184;18.966;2022-09-13T10:17:02;6.90;;;2.70;;
57889;SDS011;43707;50.184;18.966;2022-09-13T10:19:37;3.30;;;2.30;;
57889;SDS011;43707;50.184;18.966;2022-09-13T10:22:04;3.30;;;2.80;;
57889;SDS011;43707;50.184;18.966;2022-09-13T10:24:31;3.30;;;3.00;;
57889;SDS011;43707;50.184;18.966;2022-09-13T10:26:57;4.70;;;3.00;;
57889;SDS011;43707;50.184;18.966;2022-09-13T10:29:24;4.50;;;3.30;;
57889;SDS011;43707;50.184;18.966;2022-09-13T10:31:51;5.80;;;3.50;;
57889;SDS011;43707;50.184;18.966;2022-09-13T10:34:36;4.20;;;3.20;;
57889;SDS011;43707;50.184;18.966;2022-09-13T10:37:03;4.80;;;3.50;;
57889;SDS011;43707;50.184;18.966;2022-09-13T10:39:59;4.20;;;3.60;;
57889;SDS011;43707;50.184;18.966;2022-09-13T10:42:32;8.10;;;3.60;;
57889;SDS011;43707;50.184;18.966;2022-09-13T10:45:02;4.30;;;3.40;;
57889;SDS011;43707;50.184;18.966;2022-09-13T10:47:33;5.50;;;3.70;;
57889;SDS011;43707;50.184;18.966;2022-09-13T10:52:51;6.60;;;3.60;;
57889;SDS011;43707;50.184;18.966;2022-09-13T10:57:47;5.60;;;2.80;;
57889;SDS011;43707;50.184;18.966;2022-09-13T11:00:23;4.90;;;3.20;;
57889;SDS011;43707;50.184;18.966;2022-09-13T11:08:46;3.00;;;2.70;;
57889;SDS011;43707;50.184;18.966;2022-09-13T11:11:23;3.20;;;2.80;;
57889;SDS011;43707;50.184;18.966;2022-09-13T11:16:42;3.10;;;2.80;;
57889;SDS011;43707;50.184;18.966;2022-09-13T11:28:06;2.70;;;2.30;;
57889;SDS011;43707;50.184;18.966;2022-09-13T11:34:07;5.40;;;2.40;;
57889;SDS011;43707;50.184;18.966;2022-09-13T11:44:52;3.90;;;2.10;;
57889;SDS011;43707;50.184;18.966;2022-09-13T11:55:37;2.20;;;1.90;;
57889;SDS011;43707;50.184;18.966;2022-09-13T11:58:10;4.70;;;2.30;;
57889;SDS011;43707;50.184;18.966;2022-09-13T12:00:41;2.60;;;1.70;;
57889;SDS011;43707;50.184;18.966;2022-09-13T12:05:44;2.30;;;2.00;;
57889;SDS011;43707;50.184;18.966;2022-09-13T12:08:17;5.10;;;1.90;;
57889;SDS011;43707;50.184;18.966;2022-09-13T12:13:22;2.20;;;2.00;;
57889;SDS011;43707;50.184;18.966;2022-09-13T12:15:53;4.10;;;2.50;;
57889;SDS011;43707;50.184;18.966;2022-09-13T12:18:31;2.10;;;1.90;;
57889;SDS011;43707;50.184;18.966;2022-09-13T12:21:08;2.60;;;2.30;;
57889;SDS011;43707;50.184;18.966;2022-09-13T12:29:31;2.30;;;1.90;;
57889;SDS011;43707;50.184;18.966;2022-09-13T12:32:05;1.90;;;1.80;;
57889;SDS011;43707;50.184;18.966;2022-09-13T12:39:42;2.50;;;1.90;;
57889;SDS011;43707;50.184;18.966;2022-09-13T12:42:20;4.70;;;1.80;;
57889;SDS011;43707;50.184;18.966;2022-09-13T12:55:54;3.50;;;2.20;;
57889;SDS011;43707;50.184;18.966;2022-09-13T13:03:55;6.10;;;2.30;;
57889;SDS011;43707;50.184;18.966;2022-09-13T13:06:28;2.50;;;2.20;;
57889;SDS011;43707;50.184;18.966;2022-09-13T13:08:56;2.90;;;2.30;;
57889;SDS011;43707;50.184;18.966;2022-09-13T13:11:23;2.50;;;2.30;;
57889;SDS011;43707;50.184;18.966;2022-09-13T13:13:57;3.70;;;2.20;;
57889;SDS011;43707;50.184;18.966;2022-09-13T13:18:57;3.60;;;2.30;;
57889;SDS011;43707;50.184;18.966;2022-09-13T13:29:17;9.40;;;2.70;;
57889;SDS011;43707;50.184;18.966;2022-09-13T13:36:48;2.80;;;2.40;;
57889;SDS011;43707;50.184;18.966;2022-09-13T13:49:43;3.70;;;2.60;;
57889;SDS011;43707;50.184;18.966;2022-09-13T13:52:42;4.40;;;2.60;;
57889;SDS011;43707;50.184;18.966;2022-09-13T14:00:32;2.80;;;2.60;;
57889;SDS011;43707;50.184;18.966;2022-09-13T14:05:39;2.70;;;2.10;;
57889;SDS011;43707;50.184;18.966;2022-09-13T14:13:36;4.80;;;2.30;;
57889;SDS011;43707;50.184;18.966;2022-09-13T14:24:46;2.00;;;1.80;;
57889;SDS011;43707;50.184;18.966;2022-09-13T14:27:17;2.20;;;1.70;;
57889;SDS011;43707;50.184;18.966;2022-09-13T14:29:52;4.40;;;2.20;;
57889;SDS011;43707;50.184;18.966;2022-09-13T14:32:20;2.50;;;1.90;;
57889;SDS011;43707;50.184;18.966;2022-09-13T14:35:06;2.30;;;2.10;;
57889;SDS011;43707;50.184;18.966;2022-09-13T14:38:08;2.60;;;2.20;;
57889;SDS011;43707;50.184;18.966;2022-09-13T14:40:48;5.40;;;2.40;;
57889;SDS011;43707;50.184;18.966;2022-09-13T14:43:15;2.00;;;1.90;;
57889;SDS011;43707;50.184;18.966;2022-09-13T14:53:48;3.90;;;2.10;;
57889;SDS011;43707;50.184;18.966;2022-09-13T14:56:18;3.20;;;1.90;;
57889;SDS011;43707;50.184;18.966;2022-09-13T14:59:00;5.70;;;2.20;;
57889;SDS011;43707;50.184;18.966;2022-09-13T15:01:31;9.40;;;2.80;;
57889;SDS011;43707;50.184;18.966;2022-09-13T15:03:59;6.60;;;2.60;;
57889;SDS011;43707;50.184;18.966;2022-09-13T15:06:27;4.20;;;2.50;;
57889;SDS011;43707;50.184;18.966;2022-09-13T15:09:23;4.00;;;2.50;;
57889;SDS011;43707;50.184;18.966;2022-09-13T15:17:05;3.20;;;2.70;;
57889;SDS011;43707;50.184;18.966;2022-09-13T15:19:41;4.10;;;2.10;;
57889;SDS011;43707;50.184;18.966;2022-09-13T15:22:29;4.80;;;1.60;;
57889;SDS011;43707;50.184;18.966;2022-09-13T15:24:57;2.60;;;1.90;;
57889;SDS011;43707;50.184;18.966;2022-09-13T15:27:43;6.00;;;2.10;;
57889;SDS011;43707;50.184;18.966;2022-09-13T15:30:30;3.00;;;2.20;;
57889;SDS011;43707;50.184;18.966;2022-09-13T15:35:37;2.10;;;1.90;;
57889;SDS011;43707;50.184;18.966;2022-09-13T15:41:26;4.80;;;2.10;;
57889;SDS011;43707;50.184;18.966;2022-09-13T15:43:48;2.60;;;2.40;;
57889;SDS011;43707;50.184;18.966;2022-09-13T15:46:14;2.80;;;2.20;;
57889;SDS011;43707;50.184;18.966;2022-09-13T15:48:42;3.60;;;2.30;;
57889;SDS011;43707;50.184;18.966;2022-09-13T15:51:15;3.00;;;2.70;;
57889;SDS011;43707;50.184;18.966;2022-09-13T15:53:41;2.10;;;1.90;;
57889;SDS011;43707;50.184;18.966;2022-09-13T15:56:08;2.10;;;2.00;;
57889;SDS011;43707;50.184;18.966;2022-09-13T15:58:37;3.30;;;2.90;;
57889;SDS011;43707;50.184;18.966;2022-09-13T16:01:03;4.70;;;4.30;;
57889;SDS011;43707;50.184;18.966;2022-09-13T16:03:28;4.90;;;3.70;;
57889;SDS011;43707;50.184;18.966;2022-09-13T16:05:54;6.10;;;4.60;;
57889;SDS011;43707;50.184;18.966;2022-09-13T16:08:20;7.10;;;5.30;;
57889;SDS011;43707;50.184;18.966;2022-09-13T16:10:46;4.10;;;3.40;;
57889;SDS011;43707;50.184;18.966;2022-09-13T16:13:11;5.60;;;5.10;;
57889;SDS011;43707;50.184;18.966;2022-09-13T16:15:37;4.00;;;3.60;;
57889;SDS011;43707;50.184;18.966;2022-09-13T16:18:02;3.70;;;3.30;;
57889;SDS011;43707;50.184;18.966;2022-09-13T16:20:28;6.40;;;4.90;;
57889;SDS011;43707;50.184;18.966;2022-09-13T16:22:53;3.80;;;3.20;;
57889;SDS011;43707;50.184;18.966;2022-09-13T16:25:19;4.60;;;3.00;;
57889;SDS011;43707;50.184;18.966;2022-09-13T16:27:45;7.80;;;4.20;;
57889;SDS011;43707;50.184;18.966;2022-09-13T16:30:14;4.80;;;4.20;;
57889;SDS011;43707;50.184;18.966;2022-09-13T16:32:42;5.90;;;3.90;;
57889;SDS011;43707;50.184;18.966;2022-09-13T16:35:08;5.20;;;3.40;;
57889;SDS011;43707;50.184;18.966;2022-09-13T16:37:35;5.00;;;2.60;;
57889;SDS011;43707;50.184;18.966;2022-09-13T16:40:01;3.40;;;2.70;;
57889;SDS011;43707;50.184;18.966;2022-09-13T16:42:27;4.50;;;2.70;;
57889;SDS011;43707;50.184;18.966;2022-09-13T16:44:53;6.00;;;3.90;;
57889;SDS011;43707;50.184;18.966;2022-09-13T16:47:18;4.10;;;3.70;;
57889;SDS011;43707;50.184;18.966;2022-09-13T16:49:43;4.20;;;2.80;;
57889;SDS011;43707;50.184;18.966;2022-09-13T16:52:09;3.90;;;2.80;;
57889;SDS011;43707;50.184;18.966;2022-09-13T16:54:35;4.70;;;3.20;;
57889;SDS011;43707;50.184;18.966;2022-09-13T16:57:02;6.20;;;3.80;;
57889;SDS011;43707;50.184;18.966;2022-09-13T16:59:29;6.00;;;3.00;;
57889;SDS011;43707;50.184;18.966;2022-09-13T17:01:55;4.30;;;3.00;;
57889;SDS011;43707;50.184;18.966;2022-09-13T17:04:21;24.20;;;3.30;;
57889;SDS011;43707;50.184;18.966;2022-09-13T17:06:47;5.00;;;3.30;;
57889;SDS011;43707;50.184;18.966;2022-09-13T17:09:13;5.80;;;3.50;;
57889;SDS011;43707;50.184;18.966;2022-09-13T17:11:40;5.80;;;3.10;;
57889;SDS011;43707;50.184;18.966;2022-09-13T17:14:07;4.10;;;3.20;;
57889;SDS011;43707;50.184;18.966;2022-09-13T17:16:39;3.60;;;3.20;;
57889;SDS011;43707;50.184;18.966;2022-09-13T17:19:07;9.70;;;3.30;;
57889;SDS011;43707;50.184;18.966;2022-09-13T17:21:36;7.00;;;4.30;;
57889;SDS011;43707;50.184;18.966;2022-09-13T17:24:02;4.90;;;4.30;;
57889;SDS011;43707;50.184;18.966;2022-09-13T17:26:28;9.30;;;4.80;;
57889;SDS011;43707;50.184;18.966;2022-09-13T17:38:40;8.20;;;5.70;;
57889;SDS011;43707;50.184;18.966;2022-09-13T17:41:07;9.30;;;5.40;;
57889;SDS011;43707;50.184;18.966;2022-09-13T17:43:34;8.90;;;5.10;;
57889;SDS011;43707;50.184;18.966;2022-09-13T17:46:09;9.30;;;5.20;;
57889;SDS011;43707;50.184;18.966;2022-09-13T17:48:36;4.40;;;3.90;;
57889;SDS011;43707;50.184;18.966;2022-09-13T17:51:02;5.10;;;3.90;;
57889;SDS011;43707;50.184;18.966;2022-09-13T17:53:29;5.40;;;4.00;;
57889;SDS011;43707;50.184;18.966;2022-09-13T17:55:55;5.20;;;3.60;;
57889;SDS011;43707;50.184;18.966;2022-09-13T17:58:24;4.10;;;3.60;;
57889;SDS011;43707;50.184;18.966;2022-09-13T18:00:58;4.80;;;3.90;;
57889;SDS011;43707;50.184;18.966;2022-09-13T18:03:25;6.80;;;4.50;;
57889;SDS011;43707;50.184;18.966;2022-09-13T18:05:55;6.20;;;3.70;;
57889;SDS011;43707;50.184;18.966;2022-09-13T18:08:21;3.90;;;3.10;;
57889;SDS011;43707;50.184;18.966;2022-09-13T18:10:47;4.90;;;3.10;;
57889;SDS011;43707;50.184;18.966;2022-09-13T18:13:13;4.00;;;3.60;;
57889;SDS011;43707;50.184;18.966;2022-09-13T18:15:39;5.80;;;3.80;;
57889;SDS011;43707;50.184;18.966;2022-09-13T18:18:04;7.60;;;3.80;;
57889;SDS011;43707;50.184;18.966;2022-09-13T18:20:30;4.10;;;3.70;;
57889;SDS011;43707;50.184;18.966;2022-09-13T18:22:56;8.50;;;4.00;;
57889;SDS011;43707;50.184;18.966;2022-09-13T18:25:21;6.00;;;4.10;;
57889;SDS011;43707;50.184;18.966;2022-09-13T18:27:48;6.00;;;4.30;;
57889;SDS011;43707;50.184;18.966;2022-09-13T18:30:15;5.10;;;4.20;;
57889;SDS011;43707;50.184;18.966;2022-09-13T18:32:40;6.20;;;5.00;;
57889;SDS011;43707;50.184;18.966;2022-09-13T18:35:06;6.80;;;4.70;;
57889;SDS011;43707;50.184;18.966;2022-09-13T18:37:33;8.10;;;4.80;;
57889;SDS011;43707;50.184;18.966;2022-09-13T18:39:59;8.00;;;4.10;;